createdAt,value
2022-12-25T00:00:35.115Z,8.75
2022-12-25T00:03:02.835Z,8.80
2022-12-25T00:05:29.840Z,8.83
2022-12-25T00:07:56.728Z,8.85
2022-12-25T00:10:23.342Z,8.88
2022-12-25T00:12:50.174Z,8.87
2022-12-25T00:15:18.431Z,8.85
2022-12-25T00:17:44.958Z,8.83
2022-12-25T00:20:11.850Z,8.80
2022-12-25T00:22:38.746Z,8.79
2022-12-25T00:25:05.822Z,8.77
2022-12-25T00:27:33.314Z,8.77
2022-12-25T00:30:00.004Z,8.75
2022-12-25T00:32:36.295Z,8.74
2022-12-25T00:35:02.919Z,8.73
2022-12-25T00:37:29.604Z,8.74
2022-12-25T00:39:56.233Z,8.75
2022-12-25T00:42:23.875Z,8.75
2022-12-25T00:44:50.794Z,8.77
2022-12-25T00:47:17.784Z,8.79
2022-12-25T00:49:46.137Z,8.78
2022-12-25T00:52:13.150Z,8.75
2022-12-25T00:54:39.691Z,8.72
2022-12-25T00:57:06.290Z,8.70
2022-12-25T00:59:33.337Z,8.69
2022-12-25T01:02:20.014Z,8.65
2022-12-25T01:04:48.599Z,8.61
2022-12-25T01:07:16.889Z,8.59
2022-12-25T01:10:02.204Z,8.55
2022-12-25T01:12:29.044Z,8.48
2022-12-25T01:14:55.744Z,8.42
2022-12-25T01:17:22.769Z,8.39
2022-12-25T01:19:50.888Z,8.41
2022-12-25T01:22:17.595Z,8.42
2022-12-25T01:24:44.543Z,8.41
2022-12-25T01:27:11.764Z,8.40
2022-12-25T01:29:38.394Z,8.40
2022-12-25T01:32:05.499Z,8.40
2022-12-25T01:34:32.311Z,8.40
2022-12-25T01:37:00.580Z,8.39
2022-12-25T01:39:27.333Z,8.42
2022-12-25T01:41:53.824Z,8.45
2022-12-25T01:44:39.131Z,8.51
2022-12-25T01:47:06.331Z,8.54
2022-12-25T01:49:35.098Z,8.56
2022-12-25T01:52:05.515Z,8.59
2022-12-25T01:54:35.533Z,8.55
2022-12-25T01:57:05.103Z,8.51
2022-12-25T01:59:31.593Z,8.48
2022-12-25T02:01:59.925Z,8.48
2022-12-25T02:04:40.247Z,8.48
2022-12-25T02:07:09.739Z,8.46
2022-12-25T02:09:36.960Z,8.44
2022-12-25T02:12:04.172Z,8.40
2022-12-25T02:14:33.612Z,8.37
2022-12-25T02:17:05.679Z,8.29
2022-12-25T02:19:42.855Z,8.25
2022-12-25T02:22:16.350Z,8.21
2022-12-25T02:24:57.553Z,8.21
2022-12-25T02:27:34.575Z,8.18
2022-12-25T02:30:04.622Z,8.14
2022-12-25T02:32:34.846Z,8.18
2022-12-25T02:35:03.146Z,8.20
2022-12-25T02:37:33.566Z,8.20
2022-12-25T02:40:02.331Z,8.23
2022-12-25T02:42:51.717Z,8.28
2022-12-25T02:45:50.247Z,8.35
2022-12-25T02:48:36.812Z,8.42
2022-12-25T02:51:24.106Z,8.42
2022-12-25T02:54:11.022Z,8.42
2022-12-25T02:56:58.496Z,8.46
2022-12-25T02:59:44.260Z,8.49
2022-12-25T03:02:38.183Z,8.54
2022-12-25T03:05:26.011Z,8.57
2022-12-25T03:07:52.654Z,8.62
2022-12-25T03:10:39.480Z,8.63
2022-12-25T03:13:08.727Z,8.62
2022-12-25T03:15:54.131Z,8.64
2022-12-25T03:18:24.343Z,8.64
2022-12-25T03:21:09.715Z,8.64
2022-12-25T03:23:56.305Z,8.66
2022-12-25T03:26:42.009Z,8.67
2022-12-25T03:29:08.676Z,8.69
2022-12-25T03:31:40.300Z,8.67
2022-12-25T03:34:38.796Z,8.64
2022-12-25T03:37:18.234Z,8.58
2022-12-25T03:39:49.535Z,8.52
2022-12-25T03:42:37.632Z,8.49
2022-12-25T03:45:26.714Z,8.51
2022-12-25T03:48:12.887Z,8.52
2022-12-25T03:51:02.896Z,8.53
2022-12-25T03:53:50.096Z,8.53
2022-12-25T03:56:35.914Z,8.52
2022-12-25T03:59:23.917Z,8.56
2022-12-25T04:02:09.726Z,8.55
2022-12-25T04:04:55.107Z,8.53
2022-12-25T04:07:43.589Z,8.54
2022-12-25T04:10:39.566Z,8.54
2022-12-25T04:13:24.583Z,8.52
2022-12-25T04:16:10.141Z,8.53
2022-12-25T04:18:55.544Z,8.56
2022-12-25T04:21:40.833Z,8.59
2022-12-25T04:24:28.765Z,8.60
2022-12-25T04:27:13.723Z,8.62
2022-12-25T04:29:59.255Z,8.62
2022-12-25T04:32:44.259Z,8.60
2022-12-25T04:35:29.585Z,8.60
2022-12-25T04:37:56.274Z,8.57
2022-12-25T04:40:24.212Z,8.57
2022-12-25T04:42:51.168Z,8.60
2022-12-25T04:45:17.708Z,8.63
2022-12-25T04:47:44.205Z,8.64
2022-12-25T04:50:10.931Z,8.63
2022-12-25T04:52:38.114Z,8.61
2022-12-25T04:55:05.439Z,8.58
2022-12-25T04:57:33.916Z,8.53
2022-12-25T05:00:00.465Z,8.52
2022-12-25T05:02:27.465Z,8.49
2022-12-25T05:04:54.109Z,8.48
2022-12-25T05:07:20.571Z,8.50
2022-12-25T05:09:47.269Z,8.49
2022-12-25T05:12:14.147Z,8.48
2022-12-25T05:14:42.347Z,8.45
2022-12-25T05:17:08.945Z,8.44
2022-12-25T05:19:35.635Z,8.41
2022-12-25T05:22:02.262Z,8.40
2022-12-25T05:24:28.789Z,8.39
2022-12-25T05:26:55.505Z,8.37
2022-12-25T05:29:22.269Z,8.36
2022-12-25T05:31:50.504Z,8.38
2022-12-25T05:34:17.216Z,8.41
2022-12-25T05:36:43.876Z,8.45
2022-12-25T05:39:10.354Z,8.48
2022-12-25T05:41:36.882Z,8.49
2022-12-25T05:44:03.554Z,8.49
2022-12-25T05:46:30.105Z,8.46
2022-12-25T05:48:58.065Z,8.46
2022-12-25T05:51:26.404Z,8.44
2022-12-25T05:53:52.951Z,8.43
2022-12-25T05:56:19.579Z,8.44
2022-12-25T05:58:46.060Z,8.45
2022-12-25T06:01:13.103Z,8.46
2022-12-25T06:03:39.643Z,8.47
2022-12-25T06:06:08.286Z,8.49
2022-12-25T06:08:34.786Z,8.49
2022-12-25T06:11:02.306Z,8.51
2022-12-25T06:13:28.754Z,8.49
2022-12-25T06:15:55.313Z,8.47
2022-12-25T06:18:22.042Z,8.48
2022-12-25T06:20:48.587Z,8.48
2022-12-25T06:23:16.564Z,8.48
2022-12-25T06:25:43.145Z,8.48
2022-12-25T06:28:09.818Z,8.46
2022-12-25T06:30:36.278Z,8.48
2022-12-25T06:33:02.800Z,8.47
2022-12-25T06:35:29.279Z,8.50
2022-12-25T06:37:56.772Z,8.51
2022-12-25T06:40:25.096Z,8.50
2022-12-25T06:42:52.052Z,8.50
2022-12-25T06:45:18.551Z,8.49
2022-12-25T06:47:45.029Z,8.48
2022-12-25T06:50:11.698Z,8.44
2022-12-25T06:52:38.176Z,8.40
2022-12-25T06:55:04.985Z,8.33
2022-12-25T06:57:33.017Z,8.30
2022-12-25T06:59:59.548Z,8.29
2022-12-25T07:02:26.243Z,8.29
2022-12-25T07:04:53.256Z,8.28
2022-12-25T07:07:23.113Z,8.26
2022-12-25T07:09:49.656Z,8.25
2022-12-25T07:12:16.941Z,8.22
2022-12-25T07:14:45.817Z,8.17
2022-12-25T07:17:12.301Z,8.10
2022-12-25T07:19:44.622Z,8.06
2022-12-25T07:22:11.833Z,8.02
2022-12-25T07:24:38.300Z,7.99
2022-12-25T07:27:04.874Z,7.98
2022-12-25T07:29:31.384Z,7.98
2022-12-25T07:31:59.610Z,7.96
2022-12-25T07:34:26.583Z,7.95
2022-12-25T07:36:54.737Z,7.90
2022-12-25T07:39:21.273Z,7.86
2022-12-25T07:41:47.751Z,7.86
2022-12-25T07:44:14.581Z,7.85
2022-12-25T07:46:41.109Z,7.84
2022-12-25T07:49:09.345Z,7.81
2022-12-25T07:51:35.864Z,7.80
2022-12-25T07:54:02.549Z,7.77
2022-12-25T07:56:29.230Z,7.74
2022-12-25T07:58:55.871Z,7.75
2022-12-25T08:01:23.822Z,7.76
2022-12-25T08:03:50.738Z,7.82
2022-12-25T08:06:19.226Z,7.98
2022-12-25T08:08:45.944Z,8.24
2022-12-25T08:11:12.491Z,8.45
2022-12-25T08:13:39.563Z,8.65
2022-12-25T08:16:10.575Z,8.87
2022-12-25T08:18:37.606Z,9.14
2022-12-25T08:21:05.387Z,9.41
2022-12-25T08:23:35.031Z,9.69
2022-12-25T08:26:05.607Z,9.96
2022-12-25T08:28:33.289Z,10.19
2022-12-25T08:30:59.980Z,10.39
2022-12-25T08:33:26.499Z,10.54
2022-12-25T08:35:53.258Z,10.65
2022-12-25T08:38:19.748Z,10.70
2022-12-25T08:40:47.800Z,10.81
2022-12-25T08:43:14.334Z,10.98
2022-12-25T08:45:40.990Z,11.18
2022-12-25T08:48:07.686Z,11.38
2022-12-25T08:50:34.344Z,11.62
2022-12-25T08:53:01.101Z,11.88
2022-12-25T08:55:27.685Z,12.06
2022-12-25T08:57:57.966Z,12.26
2022-12-25T09:00:24.680Z,12.42
2022-12-25T09:02:51.387Z,12.55
2022-12-25T09:05:19.775Z,12.62
2022-12-25T09:07:46.600Z,12.69
2022-12-25T09:10:13.115Z,12.70
2022-12-25T09:12:39.652Z,12.61
2022-12-25T09:15:09.710Z,12.56
2022-12-25T09:17:39.767Z,12.66
2022-12-25T09:20:07.057Z,12.78
2022-12-25T09:22:34.229Z,13.00
2022-12-25T09:27:44.336Z,13.66
2022-12-25T09:30:13.421Z,13.98
2022-12-25T09:32:40.367Z,14.31
2022-12-25T09:35:07.311Z,14.56
2022-12-25T09:37:34.197Z,14.86
2022-12-25T09:40:00.820Z,15.15
2022-12-25T09:42:29.330Z,15.44
2022-12-25T09:44:57.720Z,15.65
2022-12-25T09:47:28.680Z,15.82
2022-12-25T09:49:58.255Z,15.93
2022-12-25T09:52:27.886Z,15.97
2022-12-25T09:54:56.616Z,16.00
2022-12-25T10:00:15.463Z,16.54
2022-12-25T10:03:04.414Z,16.81
2022-12-25T10:05:52.943Z,16.94
2022-12-25T10:08:31.285Z,17.06
2022-12-25T10:11:05.774Z,17.11
2022-12-25T10:13:55.391Z,17.09
2022-12-25T10:16:31.881Z,17.08
2022-12-25T10:19:27.953Z,17.11
2022-12-25T10:32:58.898Z,17.90
2022-12-25T10:38:37.470Z,18.52
2022-12-25T10:41:32.195Z,18.73
2022-12-25T10:43:59.033Z,18.79
2022-12-25T10:46:28.526Z,18.83
2022-12-25T10:48:57.530Z,18.84
2022-12-25T10:51:32.676Z,18.78
2022-12-25T10:54:02.012Z,18.72
2022-12-25T10:56:28.708Z,18.82
2022-12-25T10:59:05.043Z,19.00
2022-12-25T11:01:32.070Z,19.20
2022-12-25T11:03:59.221Z,19.51
2022-12-25T11:06:27.946Z,19.71
2022-12-25T11:08:56.815Z,19.86
2022-12-25T11:11:26.061Z,19.86
2022-12-25T11:13:55.087Z,19.89
2022-12-25T11:16:29.756Z,19.97
2022-12-25T11:18:57.772Z,19.91
2022-12-25T11:21:26.916Z,19.79
2022-12-25T11:23:58.817Z,19.74
2022-12-25T11:26:28.261Z,19.53
2022-12-25T11:32:07.004Z,18.80
2022-12-25T11:34:46.116Z,18.65
2022-12-25T11:37:22.344Z,18.50
2022-12-25T11:39:49.643Z,18.30
2022-12-25T11:42:24.519Z,18.19
2022-12-25T11:44:58.139Z,18.18
2022-12-25T11:47:31.924Z,18.11
2022-12-25T11:50:10.381Z,18.22
2022-12-25T11:52:41.035Z,18.22
2022-12-25T11:55:18.079Z,18.29
2022-12-25T12:03:31.908Z,18.45
2022-12-25T12:08:50.007Z,19.30
2022-12-25T12:11:22.682Z,19.69
2022-12-25T12:14:01.455Z,20.08
2022-12-25T12:24:41.787Z,21.40
2022-12-25T12:27:24.867Z,21.81
2022-12-25T12:30:00.920Z,22.11
2022-12-25T12:32:52.336Z,22.23
2022-12-25T12:35:22.251Z,22.10
2022-12-25T12:40:37.658Z,22.06
2022-12-25T12:49:11.812Z,20.64
2022-12-25T12:51:46.803Z,19.69
2022-12-25T12:54:23.777Z,18.98
2022-12-25T12:57:01.799Z,18.63
2022-12-25T12:59:39.973Z,18.50
2022-12-25T13:02:28.232Z,18.25
2022-12-25T13:05:07.040Z,17.84
2022-12-25T13:07:53.177Z,17.40
2022-12-25T13:10:25.572Z,17.01
2022-12-25T13:12:56.860Z,16.70
2022-12-25T13:15:28.041Z,16.45
2022-12-25T13:17:56.904Z,16.26
2022-12-25T13:20:38.806Z,16.08
2022-12-25T13:23:14.361Z,15.85
2022-12-25T13:25:41.193Z,15.62
2022-12-25T13:28:14.460Z,15.46
2022-12-25T13:30:42.420Z,15.33
2022-12-25T13:33:18.877Z,15.24
2022-12-25T13:35:47.768Z,15.13
2022-12-25T13:38:17.027Z,15.04
2022-12-25T13:41:11.370Z,14.98
2022-12-25T13:43:42.474Z,14.90
2022-12-25T13:46:13.141Z,14.82
2022-12-25T13:48:40.244Z,14.76
2022-12-25T13:51:23.619Z,14.73
2022-12-25T13:53:52.075Z,14.65
2022-12-25T13:56:19.132Z,14.58
2022-12-25T13:58:47.907Z,14.49
2022-12-25T14:01:16.739Z,14.41
2022-12-25T14:03:46.346Z,14.28
2022-12-25T14:06:24.936Z,14.17
2022-12-25T14:08:56.208Z,14.01
2022-12-25T14:11:25.391Z,13.93
2022-12-25T14:13:54.988Z,13.74
2022-12-25T14:16:22.857Z,13.61
2022-12-25T14:18:56.235Z,13.55
2022-12-25T14:21:29.238Z,13.43
2022-12-25T14:23:56.633Z,13.29
2022-12-25T14:26:26.151Z,13.20
2022-12-25T14:28:55.494Z,13.11
2022-12-25T14:31:25.101Z,13.06
2022-12-25T14:33:54.848Z,12.96
2022-12-25T14:36:22.018Z,12.89
2022-12-25T14:38:58.004Z,12.85
2022-12-25T14:41:34.251Z,12.77
2022-12-25T14:44:03.862Z,12.70
2022-12-25T14:46:32.613Z,12.62
2022-12-25T14:49:00.486Z,12.51
2022-12-25T14:51:29.820Z,12.39
2022-12-25T14:54:03.053Z,12.29
2022-12-25T14:56:39.756Z,12.17
2022-12-25T14:59:10.052Z,12.05
2022-12-25T15:01:40.070Z,11.96
2022-12-25T15:04:14.766Z,11.86
2022-12-25T15:06:52.459Z,11.80
2022-12-25T15:09:21.096Z,11.74
2022-12-25T15:11:49.163Z,11.73
2022-12-25T15:14:15.939Z,11.70
2022-12-25T15:16:45.775Z,11.67
2022-12-25T15:19:21.894Z,11.59
2022-12-25T15:21:52.234Z,11.52
2022-12-25T15:24:20.553Z,11.49
2022-12-25T15:26:47.367Z,11.43
2022-12-25T15:29:14.180Z,11.40
2022-12-25T15:31:42.205Z,11.36
2022-12-25T15:34:17.381Z,11.33
2022-12-25T15:36:44.210Z,11.21
2022-12-25T15:39:11.053Z,11.10
2022-12-25T15:41:58.994Z,11.01
2022-12-25T15:44:26.845Z,10.87
2022-12-25T15:46:54.754Z,10.77
2022-12-25T15:49:21.596Z,10.64
2022-12-25T15:51:48.331Z,10.49
2022-12-25T15:54:15.224Z,10.37
2022-12-25T16:00:33.633Z,10.16
2022-12-25T16:03:00.633Z,10.11
2022-12-25T16:05:27.866Z,10.02
2022-12-25T16:07:54.630Z,9.93
2022-12-25T16:10:23.023Z,9.88
2022-12-25T16:12:51.298Z,9.85
2022-12-25T16:15:19.806Z,9.76
2022-12-25T16:17:46.557Z,9.70
2022-12-25T16:20:14.180Z,9.66
2022-12-25T16:22:43.337Z,9.66
2022-12-25T16:25:17.179Z,9.66
2022-12-25T16:27:44.758Z,9.62
2022-12-25T16:30:16.990Z,9.62
2022-12-25T16:32:44.508Z,9.60
2022-12-25T16:35:12.288Z,9.59
2022-12-25T16:37:39.160Z,9.59
2022-12-25T16:40:07.253Z,9.60
2022-12-25T16:42:34.315Z,9.59
2022-12-25T16:45:01.226Z,9.58
2022-12-25T16:47:31.236Z,9.59
2022-12-25T16:49:58.345Z,9.56
2022-12-25T16:52:25.103Z,9.52
2022-12-25T16:54:51.884Z,9.48
2022-12-25T16:57:18.625Z,9.42
2022-12-25T16:59:45.654Z,9.37
2022-12-25T17:02:16.395Z,9.30
2022-12-25T17:04:47.630Z,9.15
2022-12-25T17:07:16.471Z,9.04
2022-12-25T17:09:44.803Z,8.96
2022-12-25T17:12:11.868Z,8.90
2022-12-25T17:14:38.774Z,8.82
2022-12-25T17:17:05.747Z,8.74
2022-12-25T17:19:33.726Z,8.74
2022-12-25T17:22:03.701Z,8.73
2022-12-25T17:24:30.835Z,8.66
2022-12-25T17:26:57.581Z,8.53
2022-12-25T17:29:25.273Z,8.41
2022-12-25T17:31:52.344Z,8.38
2022-12-25T17:34:19.662Z,8.35
2022-12-25T17:36:46.383Z,8.35
2022-12-25T17:39:14.522Z,8.39
2022-12-25T17:41:41.617Z,8.32
2022-12-25T17:44:09.055Z,8.23
2022-12-25T17:46:35.864Z,8.07
2022-12-25T17:49:03.725Z,7.93
2022-12-25T17:51:31.818Z,7.87
2022-12-25T17:54:03.039Z,7.86
2022-12-25T17:56:32.435Z,7.90
2022-12-25T17:59:03.613Z,7.93
2022-12-25T18:01:30.466Z,7.99
2022-12-25T18:03:59.804Z,8.03
2022-12-25T18:06:29.019Z,8.06
2022-12-25T18:08:57.213Z,8.07
2022-12-25T18:11:29.833Z,8.07
2022-12-25T18:14:01.615Z,8.11
2022-12-25T18:16:30.956Z,8.11
2022-12-25T18:18:59.864Z,8.08
2022-12-25T18:21:27.313Z,7.93
2022-12-25T18:23:54.474Z,7.85
2022-12-25T18:26:21.972Z,7.81
2022-12-25T18:28:49.701Z,7.78
2022-12-25T18:31:20.413Z,7.73
2022-12-25T18:33:48.171Z,7.67
2022-12-25T18:36:17.559Z,7.69
2022-12-25T18:38:44.270Z,7.66
2022-12-25T18:41:11.626Z,7.65
2022-12-25T18:43:53.122Z,7.66
2022-12-25T18:46:25.275Z,7.68
2022-12-25T18:48:52.871Z,7.60
2022-12-25T18:51:19.662Z,7.47
2022-12-25T18:53:46.518Z,7.30
2022-12-25T18:56:15.788Z,7.12
2022-12-25T18:58:43.392Z,7.02
2022-12-25T19:01:12.708Z,6.94
2022-12-25T19:03:41.499Z,6.96
2022-12-25T19:06:08.822Z,6.98
2022-12-25T19:08:35.960Z,6.93
2022-12-25T19:11:06.902Z,6.84
2022-12-25T19:13:33.857Z,6.74
2022-12-25T19:16:00.996Z,6.75
2022-12-25T19:18:28.191Z,6.70
2022-12-25T19:20:56.404Z,6.63
2022-12-25T19:23:23.152Z,6.58
2022-12-25T19:25:49.787Z,6.57
2022-12-25T19:28:17.910Z,6.54
2022-12-25T19:30:44.798Z,6.52
2022-12-25T19:33:17.425Z,6.46
2022-12-25T19:35:44.827Z,6.38
2022-12-25T19:38:13.274Z,6.34
2022-12-25T19:40:40.899Z,6.37
2022-12-25T19:43:08.038Z,6.46
2022-12-25T19:45:34.918Z,6.54
2022-12-25T19:48:01.645Z,6.58
2022-12-25T19:50:32.189Z,6.56
2022-12-25T19:52:59.209Z,6.48
2022-12-25T19:55:27.568Z,6.45
2022-12-25T19:57:55.525Z,6.43
2022-12-25T20:00:22.346Z,6.48
2022-12-25T20:02:49.234Z,6.54
2022-12-25T20:05:16.910Z,6.52
2022-12-25T20:07:44.017Z,6.47
2022-12-25T20:10:11.050Z,6.41
2022-12-25T20:12:39.351Z,6.38
2022-12-25T20:15:07.351Z,6.37
2022-12-25T20:17:34.563Z,6.40
2022-12-25T20:20:01.312Z,6.40
2022-12-25T20:22:30.234Z,6.47
2022-12-25T20:24:56.985Z,6.51
2022-12-25T20:27:23.793Z,6.55
2022-12-25T20:29:53.587Z,6.58
2022-12-25T20:32:20.409Z,6.61
2022-12-25T20:34:47.211Z,6.65
2022-12-25T20:37:14.098Z,6.69
2022-12-25T20:39:40.997Z,6.76
2022-12-25T20:42:08.053Z,6.81
2022-12-25T20:44:35.052Z,6.87
2022-12-25T20:47:04.025Z,6.88
2022-12-25T20:49:33.368Z,6.92
2022-12-25T20:52:05.305Z,6.96
2022-12-25T20:54:32.980Z,6.99
2022-12-25T20:56:59.741Z,7.00
2022-12-25T20:59:27.894Z,7.04
2022-12-25T21:01:58.933Z,7.07
2022-12-25T21:04:29.672Z,7.08
2022-12-25T21:06:57.476Z,7.08
2022-12-25T21:09:26.195Z,7.11
2022-12-25T21:11:52.811Z,7.13
2022-12-25T21:14:20.182Z,7.15
2022-12-25T21:16:47.812Z,7.16
2022-12-25T21:19:16.365Z,7.15
2022-12-25T21:21:45.088Z,7.15
2022-12-25T21:24:12.263Z,7.13
2022-12-25T21:26:41.821Z,7.13
2022-12-25T21:29:12.906Z,7.12
2022-12-25T21:32:18.903Z,7.11
2022-12-25T21:34:45.969Z,7.07
2022-12-25T21:37:14.306Z,7.08
2022-12-25T21:39:41.290Z,7.09
2022-12-25T21:42:07.991Z,7.09
2022-12-25T21:44:36.196Z,7.06
2022-12-25T21:47:04.754Z,7.03
2022-12-25T21:49:50.515Z,7.01
2022-12-25T21:52:18.891Z,6.95
2022-12-25T21:54:46.545Z,6.89
2022-12-25T21:57:13.268Z,6.87
2022-12-25T21:59:40.730Z,6.85
2022-12-25T22:02:11.891Z,6.80
2022-12-25T22:04:39.087Z,6.74
2022-12-25T22:07:18.075Z,6.67
2022-12-25T22:09:51.494Z,6.60
2022-12-25T22:12:39.598Z,6.48
2022-12-25T22:15:09.631Z,6.35
2022-12-25T22:17:56.604Z,6.31
2022-12-25T22:20:28.265Z,6.30
2022-12-25T22:22:56.194Z,6.29
2022-12-25T22:25:24.786Z,6.25
2022-12-25T22:27:51.818Z,6.16
2022-12-25T22:30:20.962Z,6.11
2022-12-25T22:32:48.635Z,6.07
2022-12-25T22:35:16.663Z,6.06
2022-12-25T22:37:43.967Z,6.06
2022-12-25T22:40:13.138Z,6.07
2022-12-25T22:42:42.229Z,6.06
2022-12-25T22:45:10.427Z,6.06
2022-12-25T22:47:37.259Z,6.06
2022-12-25T22:50:05.234Z,6.06
2022-12-25T22:52:32.149Z,6.07
2022-12-25T22:54:58.874Z,6.09
2022-12-25T22:57:26.259Z,6.11
2022-12-25T22:59:57.554Z,6.17
2022-12-25T23:02:24.778Z,6.13
2022-12-25T23:04:51.738Z,6.10
2022-12-25T23:07:18.975Z,6.11
2022-12-25T23:09:45.810Z,6.17
2022-12-25T23:12:32.909Z,6.21
2022-12-25T23:15:01.621Z,6.23
2022-12-25T23:17:47.127Z,6.19
2022-12-25T23:20:33.654Z,6.11
2022-12-25T23:23:19.366Z,6.05
2022-12-25T23:26:05.045Z,6.04
2022-12-25T23:28:50.575Z,6.05
2022-12-25T23:31:23.114Z,6.04
2022-12-25T23:33:51.459Z,6.01
2022-12-25T23:36:18.278Z,6.00
2022-12-25T23:38:45.901Z,5.99
2022-12-25T23:41:12.663Z,6.01
2022-12-25T23:43:39.310Z,6.00
2022-12-25T23:46:06.111Z,5.98
2022-12-25T23:48:34.401Z,5.93
2022-12-25T23:51:03.251Z,5.90
2022-12-25T23:53:30.075Z,5.87
2022-12-25T23:55:57.655Z,5.82
2022-12-25T23:58:24.856Z,5.78
